Aérodrome :







RETROUVEZ-NOUS SUR...

 
LOGIN :

S'inscrire | Disclaimer

   EN    FR    IT 

 









Légende :    VFR   VFR Marginal   IFR   IFR Intensif   IFR Très Intensif
Visi : 
Plafond : 
>= 8 km
>= 3000ft
5 à 8 km
1000 à 3000 ft
1500m à 5 km
500 à 1000 ft
800 à 1500m
200 à 500 ft
< 800m
< 200 ft
Symboles :   Orages  Brouillard  Fortes neiges  Fortes précipitations  Vent > 20 kt






- Altitude de l'aérodrome : 9 ft
- Code IATA : SJU


TJSJ - Luis Munoz Marin Int.

DERNIER METAR :
  • 240556Z 10003KT 10SM FEW022 SCT035 SCT065 24/23 A2990 RMK AO2 SLP125 60009 T02440233 10250 20239 58012 $

METARs EXPIRÉS :
  • 240456Z 00000KT 10SM FEW022 SCT030 SCT065 24/24 A2992 RMK AO2 SLP132 T02440239 $
  • 240356Z 00000KT 10SM FEW020 SCT033 SCT075 24/23 A2993 RMK AO2 SLP133 T02440233 403110239 $

TAF TJSJ
Valide du 24 à 06h jusqu'au 25 à 06h UTC


240539Z 2406/2506 00000KT P6SM VCSH FEW022 SCT030 BKN070
FM241430 35009KT P6SM VCSH SCT025 BKN050
FM242000 03008KT P6SM VCSH SCT028 BKN050
FM250200 00000KT P6SM VCSH FEW030 BKN060



MET'MAP, la Météo Aéronautique d'un coup d'oeil ! - Copyright ORBIFLY Décembre 2007 - Disclaimer

ORBIFLY MET'MAP TEAM :

Programmation & Développement : Alexandra Zaïnal
Sur une idée originale de : Baudouin d'Aumeries
Assistance à la programmation : Marc-Olivier Méhu
Soutien technique & logistique : Manuel Goepfert

Contact : metmap@orbifly.com




SOURCES & CREDITS :

   NOAA